Time;durP1;ratioP1;P1;durP2;ratioP2;P2;SDS_P1;SDS_P2;PMS_P1;PMS_P2;Temp;Humidity;BMP_temperature;BMP_pressure;BME280_temperature;BME280_humidity;BME280_pressure;Samples;Min_cycle;Max_cycle;Signal;HPM_P1;HPM_P2
2024/03/10 00:00:20;;;;;;;;;;;;;;;18.25;61.96;101153.34;7388025;19;1566;-40
2024/03/10 00:02:51;;;;;;;;;;;;;;;18.36;61.56;101149.78;7389142;19;1536;-40
2024/03/10 00:05:20;;;;;;;;;;;;;;;18.36;61.64;101162.34;7387655;19;1543;-40
2024/03/10 00:07:48;;;;;;;;;;;;;;;18.37;61.49;101150.69;7387164;19;1497;-41
2024/03/10 00:10:17;;;;;;;;;;;;;;;18.31;61.81;101137.78;7388369;19;1606;-40
2024/03/10 00:12:48;;;;;;;;;;;;;;;18.23;61.86;101147.25;7388101;19;1331;-40
2024/03/10 00:15:18;;;;;;;;;;;;;;;18.32;61.83;101131.44;7387693;19;1547;-40
2024/03/10 00:17:46;;;;;;;;;;;;;;;18.31;61.79;101133.28;7386165;19;1861;-40
2024/03/10 00:20:19;;;;;;;;;;;;;;;18.33;61.68;101127.78;7387256;19;1326;-39
2024/03/10 00:22:47;;;;;;;;;;;;;;;18.32;61.50;101128.75;7379347;19;1373;-40
2024/03/10 00:25:15;;;;;;;;;;;;;;;18.25;61.82;101125.72;7385867;19;1532;-40
2024/03/10 00:27:44;;;;;;;;;;;;;;;18.29;61.87;101133.38;7387230;19;1297;-40
2024/03/10 00:30:12;;;;;;;;;;;;;;;18.24;61.84;101122.22;7386375;19;1404;-41
2024/03/10 00:32:41;;;;;;;;;;;;;;;18.22;61.90;101121.47;7387054;19;1607;-40
2024/03/10 00:35:10;;;;;;;;;;;;;;;18.28;61.55;101131.69;7388188;19;1355;-40
2024/03/10 00:37:41;;;;;;;;;;;;;;;18.23;61.59;101117.81;7385583;19;1847;-39
2024/03/10 00:40:10;;;;;;;;;;;;;;;18.26;61.75;101128.28;7386301;19;1429;-41
2024/03/10 00:42:38;;;;;;;;;;;;;;;18.00;61.57;101083.97;7387003;19;2342;-41
2024/03/10 00:45:09;;;;;;;;;;;;;;;18.31;61.45;101124.38;7393673;19;1516;-40
2024/03/10 00:47:37;;;;;;;;;;;;;;;18.19;61.90;101121.72;7394178;19;1420;-41
2024/03/10 00:50:08;;;;;;;;;;;;;;;18.19;61.92;101121.72;7394292;19;1543;-40
2024/03/10 00:52:37;;;;;;;;;;;;;;;18.25;61.62;101113.19;7394651;19;1366;-41
2024/03/10 00:55:10;;;;;;;;;;;;;;;18.22;61.72;101112.56;7393086;19;1156;-40
2024/03/10 00:57:39;;;;;;;;;;;;;;;18.12;61.74;101120.47;7391607;19;1848;-40
2024/03/10 01:00:09;;;;;;;;;;;;;;;18.14;61.84;101107.81;7392062;19;1457;-40
2024/03/10 01:02:37;;;;;;;;;;;;;;;18.05;62.04;101097.88;7393553;19;1562;-40
2024/03/10 01:05:06;;;;;;;;;;;;;;;18.01;62.17;101099.91;7393688;19;1595;-40
2024/03/10 01:07:34;;;;;;;;;;;;;;;18.02;62.29;101103.44;7394033;19;1527;-40
2024/03/10 01:10:03;;;;;;;;;;;;;;;18.00;62.08;101111.59;7393278;19;1528;-40
2024/03/10 01:12:34;;;;;;;;;;;;;;;17.98;62.22;101085.94;7393491;19;1558;-40
2024/03/10 01:15:03;;;;;;;;;;;;;;;18.00;62.23;101089.34;7393482;19;1434;-39
2024/03/10 01:17:31;;;;;;;;;;;;;;;17.97;62.15;101111.84;7391296;19;1855;-40
2024/03/10 01:20:00;;;;;;;;;;;;;;;17.91;62.38;101082.06;7392888;19;1488;-41
2024/03/10 01:22:31;;;;;;;;;;;;;;;18.00;62.05;101095.53;7379605;19;1100;-41
2024/03/10 01:25:00;;;;;;;;;;;;;;;18.09;61.68;101078.75;7392643;19;1499;-40
2024/03/10 01:27:28;;;;;;;;;;;;;;;17.92;62.25;101086.41;7392615;19;1506;-40
2024/03/10 01:29:59;;;;;;;;;;;;;;;17.89;62.40;101090.19;7391917;19;1231;-40
2024/03/10 01:32:27;;;;;;;;;;;;;;;17.85;62.39;101091.41;7392374;19;1487;-41
2024/03/10 01:34:56;;;;;;;;;;;;;;;18.07;61.89;101079.84;7393131;19;1623;-40
2024/03/10 01:37:24;;;;;;;;;;;;;;;18.34;61.27;101086.66;7392225;19;1845;-39
2024/03/10 01:39:53;;;;;;;;;;;;;;;18.54;61.05;101085.88;7392390;19;1138;-40
2024/03/10 01:42:21;;;;;;;;;;;;;;;18.67;60.48;101075.03;7392584;19;1551;-40
2024/03/10 01:44:50;;;;;;;;;;;;;;;18.73;60.13;101077.19;7393046;19;1296;-40
2024/03/10 01:47:21;;;;;;;;;;;;;;;18.76;60.12;101076.09;7392992;19;1840;-40
2024/03/10 01:49:50;;;;;;;;;;;;;;;18.80;60.15;101082.94;7392381;19;1496;-40
2024/03/10 01:52:19;;;;;;;;;;;;;;;18.56;59.97;101043.78;7392425;19;1515;-39
2024/03/10 01:54:47;;;;;;;;;;;;;;;18.85;59.89;101089.63;7390099;19;1552;-40
2024/03/10 01:57:17;;;;;;;;;;;;;;;18.53;60.59;101083.34;7388521;19;1843;-40
2024/03/10 01:59:45;;;;;;;;;;;;;;;18.34;61.11;101086.66;7390903;19;1165;-41
2024/03/10 02:02:13;;;;;;;;;;;;;;;18.39;60.82;101089.81;7391766;19;1558;-40
2024/03/10 02:04:45;;;;;;;;;;;;;;;18.48;60.72;101083.69;7391446;19;1124;-40
2024/03/10 02:07:14;;;;;;;;;;;;;;;19.11;59.60;101093.81;7391780;19;1448;-40
2024/03/10 02:09:44;;;;;;;;;;;;;;;19.73;57.88;101114.47;7390827;19;1579;-40
2024/03/10 02:12:13;;;;;;;;;;;;;;;19.98;57.20;101102.47;7391771;19;1117;-40
2024/03/10 02:14:41;;;;;;;;;;;;;;;20.12;56.95;101093.19;7390389;19;1509;-40
2024/03/10 02:17:14;;;;;;;;;;;;;;;20.11;56.82;101096.84;7391702;19;1863;-40
2024/03/10 02:19:45;;;;;;;;;;;;;;;20.13;56.89;101100.25;7390620;19;1386;-39
2024/03/10 02:22:14;;;;;;;;;;;;;;;20.08;56.96;101096.28;7376686;19;1487;-39
2024/03/10 02:24:44;;;;;;;;;;;;;;;20.14;56.82;101117.22;7390889;19;2083;-40
2024/03/10 02:27:16;;;;;;;;;;;;;;;20.17;56.94;101104.38;7390979;19;1413;-40
2024/03/10 02:30:00;;;;;;;;;;;;;;;20.13;57.11;101094.88;7390748;19;1434;-40
2024/03/10 02:48:50;;;;;;;;;;;;;;;20.42;56.52;101088.78;7391757;19;1203;-40
2024/03/10 02:51:18;;;;;;;;;;;;;;;20.37;56.62;101075.78;7390668;19;1460;-41
2024/03/10 02:53:46;;;;;;;;;;;;;;;20.40;56.42;101090.75;7390670;19;1512;-40
2024/03/10 02:56:15;;;;;;;;;;;;;;;20.41;56.43;101089.75;7390468;19;1378;-41
2024/03/10 02:58:46;;;;;;;;;;;;;;;20.44;56.31;101086.81;7388508;19;1866;-41
2024/03/10 03:01:16;;;;;;;;;;;;;;;20.48;56.11;101079.31;7389689;19;1460;-40
2024/03/10 03:03:44;;;;;;;;;;;;;;;20.49;56.47;101086.38;7390323;19;1410;-41
2024/03/10 03:06:12;;;;;;;;;;;;;;;20.42;56.27;101068.13;7389860;19;1496;-41
2024/03/10 03:08:41;;;;;;;;;;;;;;;20.47;56.17;101065.03;7389632;19;1920;-41
2024/03/10 03:11:09;;;;;;;;;;;;;;;20.53;56.21;101075.25;7389592;19;1519;-40
2024/03/10 03:13:38;;;;;;;;;;;;;;;20.58;56.18;101066.75;7389506;19;1912;-41
2024/03/10 03:16:09;;;;;;;;;;;;;;;20.56;56.19;101063.38;7389098;19;1546;-41
2024/03/10 03:18:40;;;;;;;;;;;;;;;20.40;56.48;101078.16;7387776;19;1885;-41
2024/03/10 03:21:08;;;;;;;;;;;;;;;20.12;57.53;101077.09;7389298;19;1614;-39
2024/03/10 03:23:36;;;;;;;;;;;;;;;20.07;57.64;101090.06;7375956;19;1747;-40
2024/03/10 03:26:05;;;;;;;;;;;;;;;19.98;57.79;101070.25;7390717;19;1005;-40
2024/03/10 03:28:33;;;;;;;;;;;;;;;20.21;57.41;101084.34;7389661;19;1573;-40
2024/03/10 03:31:03;;;;;;;;;;;;;;;20.34;57.12;101094.84;7387169;19;1278;-40
2024/03/10 03:33:34;;;;;;;;;;;;;;;20.41;56.82;101087.06;7388992;19;1567;-40
2024/03/10 03:36:04;;;;;;;;;;;;;;;20.41;56.95;101092.44;7388532;19;1452;-40
2024/03/10 03:38:32;;;;;;;;;;;;;;;20.35;56.77;101076.88;7387607;19;1906;-40
2024/03/10 03:41:00;;;;;;;;;;;;;;;20.40;56.95;101093.44;7388198;19;1550;-41
2024/03/10 03:43:29;;;;;;;;;;;;;;;20.41;56.84;101082.56;7388607;19;1167;-41
2024/03/10 03:45:57;;;;;;;;;;;;;;;20.49;56.77;101079.16;7388299;19;1196;-41
2024/03/10 03:48:26;;;;;;;;;;;;;;;20.57;56.55;101081.16;7388586;19;1618;-45
2024/03/10 03:50:57;;;;;;;;;;;;;;;20.58;56.52;101086.41;7388761;19;1404;-40
2024/03/10 03:53:25;;;;;;;;;;;;;;;20.63;56.56;101086.03;7386703;19;1852;-40
2024/03/10 03:55:53;;;;;;;;;;;;;;;20.63;56.44;101076.13;7387314;19;1603;-40
2024/03/10 03:58:21;;;;;;;;;;;;;;;20.68;56.46;101082.94;7387588;19;1845;-40
2024/03/10 04:00:50;;;;;;;;;;;;;;;20.27;57.27;101070.38;7388340;19;1060;-41
2024/03/10 04:03:18;;;;;;;;;;;;;;;19.83;58.31;101071.56;7386121;19;2398;-40
2024/03/10 04:05:46;;;;;;;;;;;;;;;19.61;58.67;101076.09;7388031;19;1402;-40
2024/03/10 04:08:17;;;;;;;;;;;;;;;19.42;59.08;101084.88;7386983;19;1378;-40
2024/03/10 04:10:46;;;;;;;;;;;;;;;19.25;59.24;101077.41;7387558;19;1586;-40
2024/03/10 04:13:14;;;;;;;;;;;;;;;19.18;59.34;101071.72;7386903;19;1500;-41
2024/03/10 04:15:42;;;;;;;;;;;;;;;19.07;59.44;101069.91;7387045;19;1483;-40
2024/03/10 04:18:11;;;;;;;;;;;;;;;18.99;59.72;101077.75;7389500;19;1865;-40
2024/03/10 04:20:41;;;;;;;;;;;;;;;19.13;59.66;101070.41;7395459;19;1559;-40
2024/03/10 04:23:10;;;;;;;;;;;;;;;19.34;59.45;101075.75;7380167;19;1351;-41
2024/03/10 04:25:41;;;;;;;;;;;;;;;19.59;58.72;101080.72;7395796;19;986;-41
2024/03/10 04:28:09;;;;;;;;;;;;;;;19.72;58.41;101064.47;7395600;19;1858;-40
2024/03/10 04:30:38;;;;;;;;;;;;;;;19.69;58.37;101059.31;7394373;19;1246;-41
2024/03/10 04:33:08;;;;;;;;;;;;;;;19.66;58.48;101059.59;7393977;19;1564;-41
2024/03/10 04:35:37;;;;;;;;;;;;;;;19.62;58.45;101066.22;7395382;19;1092;-41
2024/03/10 04:38:06;;;;;;;;;;;;;;;19.59;58.67;101061.94;7392927;19;1857;-40
2024/03/10 04:40:34;;;;;;;;;;;;;;;19.60;58.66;101060.16;7394442;19;1187;-40
2024/03/10 04:43:05;;;;;;;;;;;;;;;19.61;58.74;101067.19;7394301;19;1511;-40
2024/03/10 04:45:34;;;;;;;;;;;;;;;19.59;58.53;101088.78;7393949;19;1543;-40
2024/03/10 04:48:02;;;;;;;;;;;;;;;19.62;58.65;101076.97;7393465;19;1251;-41
2024/03/10 04:50:30;;;;;;;;;;;;;;;19.59;58.33;101079.88;7394149;19;1433;-41
2024/03/10 04:52:59;;;;;;;;;;;;;;;19.45;58.68;101065.81;7394175;19;1445;-40
2024/03/10 04:55:28;;;;;;;;;;;;;;;19.20;59.10;101093.00;7394784;19;1396;-40
2024/03/10 04:57:58;;;;;;;;;;;;;;;19.02;59.57;101084.69;7393237;19;1862;-40
2024/03/10 05:00:29;;;;;;;;;;;;;;;18.79;59.72;101108.00;7393651;19;1564;-40
2024/03/10 05:02:57;;;;;;;;;;;;;;;18.80;60.28;101104.38;7393336;19;1188;-40
2024/03/10 05:05:26;;;;;;;;;;;;;;;19.20;59.38;101099.25;7393730;19;1553;-40
2024/03/10 05:07:54;;;;;;;;;;;;;;;19.39;59.08;101103.88;7393903;19;1505;-40
2024/03/10 05:10:22;;;;;;;;;;;;;;;19.47;58.98;101105.94;7393480;19;1676;-41
2024/03/10 05:12:51;;;;;;;;;;;;;;;19.30;59.17;101101.13;7393536;19;1664;-41
2024/03/10 05:15:19;;;;;;;;;;;;;;;19.11;59.89;101139.38;7393912;19;1560;-39
2024/03/10 05:17:52;;;;;;;;;;;;;;;18.92;60.23;101102.50;7393161;19;1851;-40
2024/03/10 05:20:23;;;;;;;;;;;;;;;18.87;60.52;101116.28;7393911;19;1549;-40
2024/03/10 05:22:51;;;;;;;;;;;;;;;18.81;60.74;101106.91;7378946;19;1300;-41
2024/03/10 05:25:21;;;;;;;;;;;;;;;19.11;60.06;101091.13;7393301;19;1393;-40
2024/03/10 05:27:51;;;;;;;;;;;;;;;19.43;59.26;101101.81;7392795;19;1132;-40
2024/03/10 05:30:19;;;;;;;;;;;;;;;19.67;58.74;101101.53;7392341;19;1243;-40
2024/03/10 05:32:50;;;;;;;;;;;;;;;19.86;58.73;101090.94;7392490;19;1391;-40
2024/03/10 05:35:20;;;;;;;;;;;;;;;19.97;58.22;101110.63;7393145;19;1648;-40
2024/03/10 05:37:48;;;;;;;;;;;;;;;20.07;58.07;101098.09;7392783;19;1851;-40
2024/03/10 05:40:16;;;;;;;;;;;;;;;19.99;57.90;101106.00;7392276;19;1544;-40
2024/03/10 05:42:45;;;;;;;;;;;;;;;19.92;57.94;101111.03;7391939;19;1361;-40
2024/03/10 05:45:14;;;;;;;;;;;;;;;19.84;58.09;101117.06;7391891;19;1204;-40
2024/03/10 05:47:42;;;;;;;;;;;;;;;19.81;58.26;101106.59;7392141;19;1440;-40
2024/03/10 05:50:13;;;;;;;;;;;;;;;19.79;58.44;101092.47;7392696;19;1311;-39
2024/03/10 05:52:42;;;;;;;;;;;;;;;19.84;58.40;101100.97;7392213;19;1253;-41
2024/03/10 05:55:10;;;;;;;;;;;;;;;19.83;58.48;101091.22;7391786;19;1560;-42
2024/03/10 05:57:39;;;;;;;;;;;;;;;19.83;58.70;101117.19;7392777;19;1551;-42
2024/03/10 06:00:14;;;;;;;;;;;;;;;19.82;58.75;101124.41;7390342;19;1863;-40
2024/03/10 06:02:44;;;;;;;;;;;;;;;19.81;58.45;101121.84;7391872;19;1500;-40
2024/03/10 06:05:15;;;;;;;;;;;;;;;19.85;58.54;101113.41;7391295;19;1183;-40
2024/03/10 06:07:45;;;;;;;;;;;;;;;19.90;58.75;101101.44;7390944;19;1196;-40
2024/03/10 06:10:13;;;;;;;;;;;;;;;19.95;58.70;101117.97;7390194;19;1586;-40
2024/03/10 06:12:42;;;;;;;;;;;;;;;19.89;58.71;101103.25;7391028;19;1537;-40
2024/03/10 06:15:16;;;;;;;;;;;;;;;19.85;59.38;101097.28;7388631;19;1503;-43
2024/03/10 06:18:01;;;;;;;;;;;;;;;19.93;59.67;101109.22;7390278;19;1152;-43
2024/03/10 06:25:56;;;;;;;;;;;;;;;20.18;58.57;101091.81;7385850;19;1180;-46
2024/03/10 06:28:25;;;;;;;;;;;;;;;20.27;58.42;101091.84;7389668;19;1484;-44
2024/03/10 06:30:58;;;;;;;;;;;;;;;20.20;58.55;101088.00;7390550;19;1519;-44
2024/03/10 06:33:26;;;;;;;;;;;;;;;20.25;58.84;101104.56;7390013;19;1563;-44
2024/03/10 06:35:58;;;;;;;;;;;;;;;20.15;59.11;101102.81;7389113;19;1301;-43
2024/03/10 06:38:26;;;;;;;;;;;;;;;19.80;59.92;101104.91;7387762;19;1857;-43
2024/03/10 06:40:55;;;;;;;;;;;;;;;19.54;60.67;101117.00;7387532;19;1492;-43
2024/03/10 06:43:24;;;;;;;;;;;;;;;19.32;61.07;101115.25;7389430;19;1716;-43
2024/03/10 06:45:53;;;;;;;;;;;;;;;19.21;61.34;101118.84;7388452;19;1571;-43
2024/03/10 06:48:21;;;;;;;;;;;;;;;19.13;61.46;101121.31;7387635;19;1476;-44
2024/03/10 06:50:50;;;;;;;;;;;;;;;19.05;61.89;101119.28;7388589;19;1223;-43
2024/03/10 06:53:20;;;;;;;;;;;;;;;19.30;61.83;101120.78;7388305;19;1601;-41
2024/03/10 06:55:49;;;;;;;;;;;;;;;19.57;61.11;101125.63;7386638;19;1267;-41
2024/03/10 06:58:19;;;;;;;;;;;;;;;19.78;60.35;101139.06;7387332;19;1836;-40
2024/03/10 07:00:47;;;;;;;;;;;;;;;19.64;60.58;101139.38;7389007;19;1425;-40
2024/03/10 07:03:16;;;;;;;;;;;;;;;19.41;61.43;101138.63;7388884;19;1421;-41
2024/03/10 07:05:45;;;;;;;;;;;;;;;19.30;61.55;101139.53;7388063;19;1465;-40
2024/03/10 07:08:15;;;;;;;;;;;;;;;19.23;62.14;101149.06;7389247;19;1468;-41
2024/03/10 07:10:46;;;;;;;;;;;;;;;19.23;62.04;101162.47;7389218;19;1495;-41
2024/03/10 07:13:14;;;;;;;;;;;;;;;19.07;62.28;101147.66;7389837;19;1469;-40
2024/03/10 07:15:43;;;;;;;;;;;;;;;19.30;61.80;101144.91;7389412;19;1370;-40
2024/03/10 07:18:11;;;;;;;;;;;;;;;19.66;61.02;101145.47;7389142;19;1851;-41
2024/03/10 07:20:39;;;;;;;;;;;;;;;19.85;60.67;101134.88;7389936;19;1303;-46
2024/03/10 07:23:08;;;;;;;;;;;;;;;20.00;60.40;101147.97;7375467;19;1196;-41
2024/03/10 07:25:36;;;;;;;;;;;;;;;19.93;60.52;101149.47;7386697;19;2424;-40
2024/03/10 07:28:07;;;;;;;;;;;;;;;19.65;61.06;101160.69;7389512;19;1611;-40
2024/03/10 07:30:35;;;;;;;;;;;;;;;19.37;61.92;101151.44;7388457;19;1551;-40
2024/03/10 07:33:04;;;;;;;;;;;;;;;19.23;62.08;101155.28;7386913;19;1274;-41
2024/03/10 07:35:32;;;;;;;;;;;;;;;18.97;62.59;101149.38;7387512;19;1554;-41
2024/03/10 07:38:01;;;;;;;;;;;;;;;18.86;63.20;101147.59;7388160;19;1453;-41
2024/03/10 07:40:29;;;;;;;;;;;;;;;19.26;62.36;101138.09;7386570;19;1926;-41
2024/03/10 07:42:58;;;;;;;;;;;;;;;19.56;61.22;101141.88;7388482;19;1548;-41
2024/03/10 07:45:28;;;;;;;;;;;;;;;19.77;60.12;101137.34;7388163;19;1570;-41
2024/03/10 07:47:58;;;;;;;;;;;;;;;19.88;60.29;101127.56;7387923;19;1552;-40
2024/03/10 07:50:26;;;;;;;;;;;;;;;19.95;60.07;101126.03;7387322;19;2475;-42
2024/03/10 07:52:54;;;;;;;;;;;;;;;19.95;60.09;101139.44;7383734;19;1307;-41
2024/03/10 07:55:23;;;;;;;;;;;;;;;19.93;60.45;101141.41;7388740;19;1296;-41
2024/03/10 07:57:51;;;;;;;;;;;;;;;19.92;60.79;101145.09;7388207;19;1199;-40
2024/03/10 08:00:22;;;;;;;;;;;;;;;19.92;60.74;101134.38;7385958;19;1843;-40
2024/03/10 08:02:53;;;;;;;;;;;;;;;19.99;60.88;101167.72;7374718;19;1350;-40
2024/03/10 08:05:22;;;;;;;;;;;;;;;19.98;60.67;101153.47;7388520;19;1668;-40
2024/03/10 08:07:51;;;;;;;;;;;;;;;19.93;60.82;101154.84;7388060;19;1527;-40
2024/03/10 08:10:21;;;;;;;;;;;;;;;19.93;60.56;101136.03;7387338;19;1287;-41
2024/03/10 08:12:49;;;;;;;;;;;;;;;20.04;60.32;101126.09;7388384;19;1226;-41
2024/03/10 08:15:19;;;;;;;;;;;;;;;19.99;60.69;101124.78;7387842;19;1600;-40
2024/03/10 08:17:48;;;;;;;;;;;;;;;20.04;60.76;101120.72;7387317;19;1100;-40
2024/03/10 08:20:19;;;;;;;;;;;;;;;20.08;60.51;101099.81;7385710;19;1844;-40
2024/03/10 08:22:49;;;;;;;;;;;;;;;20.12;60.49;101125.41;7378116;19;2482;-40
2024/03/10 08:25:18;;;;;;;;;;;;;;;20.16;60.45;101102.69;7385483;19;1394;-41
2024/03/10 08:27:49;;;;;;;;;;;;;;;20.21;60.33;101113.88;7387086;19;1421;-40
2024/03/10 08:30:18;;;;;;;;;;;;;;;20.25;60.83;101103.69;7386820;19;1488;-39
2024/03/10 08:32:46;;;;;;;;;;;;;;;19.90;59.87;101112.19;7387195;19;1635;-39
2024/03/10 08:35:20;;;;;;;;;;;;;;;19.59;61.51;101117.44;7387707;19;1302;-42
2024/03/10 08:37:49;;;;;;;;;;;;;;;19.18;60.14;101109.25;7383369;19;1548;-42
2024/03/10 08:40:19;;;;;;;;;;;;;;;19.07;60.67;101114.63;7382257;19;1860;-41
2024/03/10 08:42:47;;;;;;;;;;;;;;;19.00;61.09;101132.19;7383533;19;1540;-40
2024/03/10 08:45:16;;;;;;;;;;;;;;;19.25;61.23;101120.28;7383469;19;1290;-40
2024/03/10 08:47:46;;;;;;;;;;;;;;;19.71;60.33;101108.38;7383921;19;1560;-41
2024/03/10 08:50:15;;;;;;;;;;;;;;;19.95;59.79;101096.50;7382349;19;1248;-42
2024/03/10 08:52:46;;;;;;;;;;;;;;;19.63;60.47;101095.56;7384695;19;1113;-41
2024/03/10 08:55:16;;;;;;;;;;;;;;;19.48;61.29;101116.53;7382471;19;1221;-41
2024/03/10 08:57:45;;;;;;;;;;;;;;;19.32;61.76;101105.41;7383149;19;1283;-41
2024/03/10 09:00:17;;;;;;;;;;;;;;;19.16;62.06;101116.56;7380831;19;1851;-40
2024/03/10 09:02:45;;;;;;;;;;;;;;;19.11;62.28;101096.47;7381321;19;1667;-40
2024/03/10 09:05:15;;;;;;;;;;;;;;;19.39;61.81;101098.53;7388428;19;1575;-41
2024/03/10 09:07:47;;;;;;;;;;;;;;;19.72;60.82;101093.16;7393178;19;1622;-41
2024/03/10 09:10:15;;;;;;;;;;;;;;;19.92;60.42;101091.41;7392900;19;1484;-40
2024/03/10 09:12:43;;;;;;;;;;;;;;;19.60;61.39;101093.19;7393704;19;1082;-40
2024/03/10 09:15:12;;;;;;;;;;;;;;;19.39;61.72;101074.38;7392296;19;1847;-40
2024/03/10 09:17:41;;;;;;;;;;;;;;;19.25;62.35;101090.81;7393228;19;1567;-41
2024/03/10 09:20:11;;;;;;;;;;;;;;;19.14;62.82;101074.75;7391672;19;1861;-46
2024/03/10 09:22:41;;;;;;;;;;;;;;;19.17;63.34;101095.97;7392310;19;936;-40
2024/03/10 09:25:20;;;;;;;;;;;;;;;19.41;63.37;101082.31;7378282;19;1377;-40
2024/03/10 09:27:48;;;;;;;;;;;;;;;19.76;62.48;101094.59;7393806;19;1649;-41
2024/03/10 09:30:17;;;;;;;;;;;;;;;20.03;61.97;101072.50;7391734;19;1640;-41
2024/03/10 09:32:49;;;;;;;;;;;;;;;19.73;62.89;101071.53;7391931;19;1196;-41
2024/03/10 09:35:20;;;;;;;;;;;;;;;19.50;63.53;101059.19;7392671;19;1566;-41
2024/03/10 09:37:49;;;;;;;;;;;;;;;19.39;64.15;101082.44;7392707;19;1583;-40
2024/03/10 09:40:25;;;;;;;;;;;;;;;19.33;64.74;101057.97;7390652;19;1877;-41
2024/03/10 09:42:55;;;;;;;;;;;;;;;19.25;65.72;101072.03;7391909;19;1615;-41
2024/03/10 09:45:24;;;;;;;;;;;;;;;19.21;65.69;101076.78;7389865;19;2454;-40
2024/03/10 09:47:52;;;;;;;;;;;;;;;19.45;65.58;101076.53;7390376;19;1164;-42
2024/03/10 09:50:24;;;;;;;;;;;;;;;19.84;64.27;101084.03;7392201;19;1611;-41
2024/03/10 09:52:56;;;;;;;;;;;;;;;19.83;64.13;101072.41;7391911;19;1187;-41
2024/03/10 09:55:27;;;;;;;;;;;;;;;19.62;64.61;101076.97;7390411;19;1282;-40
2024/03/10 09:57:56;;;;;;;;;;;;;;;19.41;65.25;101059.00;7389033;19;1828;-40
2024/03/10 10:00:26;;;;;;;;;;;;;;;19.34;65.47;101073.94;7387965;19;1853;-43
2024/03/10 10:02:59;;;;;;;;;;;;;;;19.15;65.33;101074.63;7390492;19;1479;-41
2024/03/10 10:05:29;;;;;;;;;;;;;;;19.09;65.24;101053.72;7389637;19;1373;-42
2024/03/10 10:07:58;;;;;;;;;;;;;;;19.65;63.66;101064.09;7390572;19;1384;-41
2024/03/10 10:10:29;;;;;;;;;;;;;;;19.76;62.92;101065.91;7390631;19;1112;-41
2024/03/10 10:12:58;;;;;;;;;;;;;;;19.81;62.67;101069.03;7391291;19;1413;-42
2024/03/10 10:15:26;;;;;;;;;;;;;;;19.50;62.84;101069.94;7389073;19;1180;-40
2024/03/10 10:17:55;;;;;;;;;;;;;;;19.23;62.80;101057.91;7391054;19;1502;-40
2024/03/10 10:20:25;;;;;;;;;;;;;;;19.13;61.61;101052.47;7390198;19;1850;-41
2024/03/10 10:22:54;;;;;;;;;;;;;;;19.02;62.40;101058.75;7391948;19;1171;-40
2024/03/10 10:25:25;;;;;;;;;;;;;;;18.93;61.19;101035.38;7375798;19;1295;-42
2024/03/10 10:27:57;;;;;;;;;;;;;;;18.60;59.11;101045.22;7390552;19;1452;-40
2024/03/10 10:30:27;;;;;;;;;;;;;;;17.78;53.62;101036.63;7390253;19;1548;-40
2024/03/10 10:33:04;;;;;;;;;;;;;;;17.67;55.35;101032.16;7391364;19;1201;-40
2024/03/10 10:35:33;;;;;;;;;;;;;;;17.64;51.00;101032.38;7392488;19;1057;-41
2024/03/10 10:38:04;;;;;;;;;;;;;;;17.24;51.25;101028.28;7390782;19;1899;-41
2024/03/10 10:40:32;;;;;;;;;;;;;;;17.44;50.17;101029.41;7387026;19;1859;-39
2024/03/10 10:43:06;;;;;;;;;;;;;;;17.63;51.51;101026.19;7388739;19;1893;-41
2024/03/10 10:45:34;;;;;;;;;;;;;;;17.32;48.56;101011.66;7387777;19;1507;-41
2024/03/10 10:48:03;;;;;;;;;;;;;;;17.09;50.24;101014.28;7387886;19;1316;-40
2024/03/10 10:50:34;;;;;;;;;;;;;;;17.56;49.52;101005.38;7390492;19;1570;-41
2024/03/10 10:53:04;;;;;;;;;;;;;;;17.80;49.11;101018.63;7390003;19;1563;-41
2024/03/10 10:55:34;;;;;;;;;;;;;;;17.06;47.94;101022.53;7390750;19;1055;-41
2024/03/10 10:58:06;;;;;;;;;;;;;;;16.81;48.05;101009.28;7390457;19;1859;-41
2024/03/10 11:00:35;;;;;;;;;;;;;;;17.13;48.81;101017.59;7388959;19;1857;-40
2024/03/10 11:03:09;;;;;;;;;;;;;;;17.38;47.80;101003.16;7390225;19;1562;-40
2024/03/10 11:05:38;;;;;;;;;;;;;;;17.56;49.31;101000.88;7389166;19;1239;-40
2024/03/10 11:08:07;;;;;;;;;;;;;;;17.61;48.71;100981.81;7388029;19;2315;-41
2024/03/10 11:10:42;;;;;;;;;;;;;;;17.76;49.88;100999.31;7388509;19;1649;-40
2024/03/10 11:13:14;;;;;;;;;;;;;;;17.91;50.83;100999.94;7388982;19;1595;-42
2024/03/10 11:15:44;;;;;;;;;;;;;;;17.99;50.63;100996.66;7389552;19;1586;-41
2024/03/10 11:18:22;;;;;;;;;;;;;;;17.96;51.83;101007.59;7389416;19;1504;-40
2024/03/10 11:20:51;;;;;;;;;;;;;;;17.95;51.22;101000.56;7389090;19;1879;-41
2024/03/10 11:23:24;;;;;;;;;;;;;;;17.96;52.06;100994.22;7390302;19;1107;-40
2024/03/10 11:25:53;;;;;;;;;;;;;;;17.94;52.37;101005.03;7374338;19;1105;-39
2024/03/10 11:28:47;;;;;;;;;;;;;;;17.84;52.54;100993.38;7388601;19;1802;-40
2024/03/10 11:31:18;;;;;;;;;;;;;;;17.81;53.01;100973.06;7388416;19;1483;-40
2024/03/10 11:33:48;;;;;;;;;;;;;;;17.85;51.29;100979.88;7388810;19;1513;-40
2024/03/10 11:36:16;;;;;;;;;;;;;;;17.86;50.68;100970.88;7388426;19;1151;-41
2024/03/10 11:38:45;;;;;;;;;;;;;;;17.69;49.69;100990.94;7388253;19;1505;-40
2024/03/10 11:41:14;;;;;;;;;;;;;;;17.32;49.33;100936.81;7387744;19;1867;-40
2024/03/10 11:43:47;;;;;;;;;;;;;;;17.64;50.34;100963.69;7388550;19;1631;-40
2024/03/10 11:46:24;;;;;;;;;;;;;;;17.71;49.68;100974.75;7388032;19;1542;-40
2024/03/10 11:48:55;;;;;;;;;;;;;;;17.65;47.97;100967.22;7389618;19;1627;-40
2024/03/10 11:51:26;;;;;;;;;;;;;;;17.60;49.58;100964.06;7388571;19;1480;-40
2024/03/10 11:53:54;;;;;;;;;;;;;;;17.80;50.02;100978.53;7388378;19;1536;-41
2024/03/10 11:56:23;;;;;;;;;;;;;;;17.77;49.50;100955.53;7388304;19;1602;-40
2024/03/10 11:58:57;;;;;;;;;;;;;;;17.80;49.64;100963.31;7389163;19;1512;-40
2024/03/10 12:01:26;;;;;;;;;;;;;;;17.86;51.39;100960.16;7384955;19;1898;-41
2024/03/10 12:03:55;;;;;;;;;;;;;;;17.86;50.40;100938.78;7387952;19;1247;-41
2024/03/10 12:06:26;;;;;;;;;;;;;;;17.99;51.32;100951.19;7386160;19;1399;-41
2024/03/10 12:08:54;;;;;;;;;;;;;;;17.99;52.25;100953.84;7387146;19;1176;-40
2024/03/10 12:11:26;;;;;;;;;;;;;;;17.87;52.50;100956.53;7387145;19;1758;-40
2024/03/10 12:13:57;;;;;;;;;;;;;;;17.81;52.89;100959.69;7388008;19;1465;-40
2024/03/10 12:16:25;;;;;;;;;;;;;;;17.80;52.92;100933.88;7388309;19;1836;-40
2024/03/10 12:18:55;;;;;;;;;;;;;;;17.82;52.92;100939.97;7387428;19;1658;-41
2024/03/10 12:21:29;;;;;;;;;;;;;;;17.91;52.80;100934.91;7386840;19;1856;-42
2024/03/10 12:23:58;;;;;;;;;;;;;;;17.88;52.90;100919.94;7375367;19;1410;-40
2024/03/10 12:26:28;;;;;;;;;;;;;;;17.95;52.69;100922.97;7387049;19;1461;-41
2024/03/10 12:28:59;;;;;;;;;;;;;;;17.95;52.51;100923.81;7384989;19;2403;-40
2024/03/10 12:31:28;;;;;;;;;;;;;;;17.91;52.97;100918.84;7387022;19;993;-41
2024/03/10 12:33:56;;;;;;;;;;;;;;;17.93;53.16;100932.94;7386938;19;1561;-41
2024/03/10 12:36:24;;;;;;;;;;;;;;;17.91;52.90;100921.53;7386585;19;1587;-41
2024/03/10 12:38:54;;;;;;;;;;;;;;;17.93;52.38;100914.22;7390263;19;1188;-40
2024/03/10 12:41:23;;;;;;;;;;;;;;;17.97;51.17;100905.81;7393069;19;1857;-44
2024/03/10 12:43:55;;;;;;;;;;;;;;;18.28;51.67;100906.81;7391648;19;1585;-43
2024/03/10 12:46:26;;;;;;;;;;;;;;;19.20;49.99;100898.19;7393965;19;1227;-43
2024/03/10 12:48:54;;;;;;;;;;;;;;;19.67;49.51;100905.69;7394088;19;1184;-44
2024/03/10 12:51:24;;;;;;;;;;;;;;;19.48;49.94;100917.22;7394133;19;1370;-43
2024/03/10 12:53:53;;;;;;;;;;;;;;;19.10;50.89;100904.44;7393328;19;1587;-43
2024/03/10 12:56:22;;;;;;;;;;;;;;;19.52;50.45;100897.19;7391180;19;1449;-41
2024/03/10 12:58:51;;;;;;;;;;;;;;;19.51;50.14;100849.88;7389894;19;1551;-41
2024/03/10 13:01:20;;;;;;;;;;;;;;;19.92;50.84;100892.81;7391745;19;1859;-40
2024/03/10 13:03:51;;;;;;;;;;;;;;;20.19;50.84;100890.28;7394833;19;1587;-41
2024/03/10 13:06:19;;;;;;;;;;;;;;;20.37;50.56;100876.13;7394243;19;1583;-41
2024/03/10 13:08:48;;;;;;;;;;;;;;;20.57;50.44;100883.22;7394515;19;1077;-40
2024/03/10 13:11:17;;;;;;;;;;;;;;;20.43;50.89;100891.69;7392537;19;1923;-41
2024/03/10 13:13:46;;;;;;;;;;;;;;;20.43;51.07;100875.56;7394243;19;1586;-40
2024/03/10 13:16:14;;;;;;;;;;;;;;;20.39;51.43;100887.59;7394362;19;1495;-41
2024/03/10 13:18:43;;;;;;;;;;;;;;;20.41;51.30;100875.75;7393675;19;1274;-41
2024/03/10 13:21:14;;;;;;;;;;;;;;;20.41;51.35;100869.50;7392859;19;1868;-41